Details From KSDL - SCOTTSDALE
To KSEZ - Sedona
Flight Number -
Tags generated
Created
Modified
Stats Distance 74 nm / 137 km
Max Altitude 1,600 ft / 488 m
Waypoints 3
Social Downloads 3
Likes 0
Share VATSIM

Download

Looking for another format? Having issues loading an existing format? Contact us
Advertisement - Login to hide

Notes

Basic altitude profile: - Ascent Rate: 1000ft/min - Ascent Speed: 250kts - Cruise Altitude: 1600ft - Cruise Speed: 250kts - Descent Rate: 500ft/min - Descent Speed: 154kts Options: - Use NATs: yes - Use PACOTS: yes - Use low airways: yes - Use high airways: yes

Route

KSDL KNOBB KSEZ

ID Type Via Altitude Latitude Longitude Leg Dist Tot Dist Heading (true) Name
O KSDL APT - 0 ft / 0 m 33.62288˚ -111.91053˚ - 0 nm - SCOTTSDALE
KNOBB FIX - 1,600 ft / 488 m 33.69866˚ -111.90934˚ 4 nm 4 nm 1° / 1° -
O KSEZ APT - 0 ft / 0 m 34.84861˚ -111.78848˚ 69 nm 73 nm 5° / 5° Sedona

Altitude Profile

Advertisement - Login to hide

KSDL

Details ICAO KSDL (ZSY)
Name SCOTTSDALE
Region United States
Timezone America/Phoenix (UTC-7.0)
Stats Elevation 1,510 ft / 460 m (AMSL)
Location 33.622881° -111.910535°
Runways 1
Magnetic Variation 10.272° E

METAR

KSDL 262153Z 23011KT 10SM CLR 33/M01 A2979 RMK AO2 SLP064 T03281006

Decode

TAF

KSDL 261934Z 2620/2718 25010KT P6SM SCT250 TEMPO 2620/2624 24012G18KT FM270400 VRB04KT P6SM SCT250

Decode

Departure Runways

ID Width Length Bearing (true) Bearing (mag) Surface Threshold Offset Overrun Length
03 100 ft / 30 m 8,253 ft / 2,516 m 43.82° 33.55° Asphalt 740 ft / 226 m 0 ft / 0 m
21 100 ft / 30 m 8,253 ft / 2,516 m 223.83° 213.56° Asphalt 400 ft / 122 m 0 ft / 0 m

KSEZ

Details ICAO KSEZ (SDX)
Name Sedona
Region United States
Timezone America/Phoenix (UTC-7.0)
Stats Elevation 4,827 ft / 1,471 m (AMSL)
Location 34.848607° -111.788482°
Runways 1
Magnetic Variation 10.417° E

METAR

KSEZ 262155Z AUTO 18019G29KT 10SM CLR 25/M06 A2990 RMK AO2

Decode

TAF

TAF KSEZ 261725Z 2618/2718 20018G28KT P6SM SCT250 FM270200 22011KT P6SM SKC FM270800 05006KT P6SM SKC

Decode

Destination Runways

ID Width Length Bearing (true) Bearing (mag) Surface Threshold Offset Overrun Length
03 100 ft / 30 m 5,130 ft / 1,564 m 45.63° 35.21° Asphalt 0 ft / 0 m 0 ft / 0 m
21 100 ft / 30 m 5,130 ft / 1,564 m 225.64° 215.22° Asphalt 0 ft / 0 m 0 ft / 0 m

Popular Alternatives